createdAt,value
2023-01-13T00:00:24.472Z,9.32
2023-01-13T00:01:24.415Z,9.22
2023-01-13T00:02:24.469Z,9.31
2023-01-13T00:03:24.395Z,9.26
2023-01-13T00:04:24.408Z,9.32
2023-01-13T00:05:24.402Z,9.38
2023-01-13T00:06:24.433Z,9.31
2023-01-13T00:07:24.383Z,9.26
2023-01-13T00:08:24.364Z,9.23
2023-01-13T00:09:24.367Z,9.32
2023-01-13T00:10:24.400Z,9.31
2023-01-13T00:11:24.361Z,9.35
2023-01-13T00:12:24.403Z,9.19
2023-01-13T00:13:24.344Z,9.31
2023-01-13T00:14:24.391Z,9.42
2023-01-13T00:15:24.339Z,9.30
2023-01-13T00:16:24.424Z,9.27
2023-01-13T00:17:24.347Z,9.24
2023-01-13T00:18:24.343Z,9.31
2023-01-13T00:19:24.412Z,9.27
2023-01-13T00:20:24.313Z,9.32
2023-01-13T00:21:24.387Z,9.30
2023-01-13T00:22:24.312Z,9.31
2023-01-13T00:23:24.409Z,9.34
2023-01-13T00:24:24.289Z,9.37
2023-01-13T00:25:24.306Z,9.30
2023-01-13T00:26:24.297Z,9.40
2023-01-13T00:27:24.275Z,9.38
2023-01-13T00:28:24.278Z,9.37
2023-01-13T00:29:24.279Z,9.32
2023-01-13T00:30:24.255Z,9.32
2023-01-13T00:31:24.269Z,9.27
2023-01-13T00:32:24.249Z,9.30
2023-01-13T00:33:24.223Z,9.32
2023-01-13T00:34:25.271Z,9.26
2023-01-13T00:35:24.209Z,9.34
2023-01-13T00:36:24.211Z,9.41
2023-01-13T00:37:24.219Z,9.30
2023-01-13T00:38:24.230Z,9.40
2023-01-13T00:39:24.234Z,9.34
2023-01-13T00:40:24.201Z,9.30
2023-01-13T00:41:24.239Z,9.31
2023-01-13T00:42:24.197Z,9.30
2023-01-13T00:43:24.185Z,9.31
2023-01-13T00:44:24.202Z,9.35
2023-01-13T00:45:24.214Z,9.32
2023-01-13T00:46:24.246Z,9.34
2023-01-13T00:47:24.155Z,9.35
2023-01-13T00:48:24.159Z,9.38
2023-01-13T00:49:24.138Z,9.34
2023-01-13T00:50:24.145Z,9.30
2023-01-13T00:51:25.197Z,9.31
2023-01-13T00:52:24.162Z,9.34
2023-01-13T00:53:24.229Z,9.30
2023-01-13T00:54:24.123Z,9.24
2023-01-13T00:55:24.110Z,9.23
2023-01-13T00:56:39.199Z,9.32
2023-01-13T00:57:26.109Z,9.40
2023-01-13T00:58:24.081Z,9.37
2023-01-13T00:59:24.088Z,9.30
2023-01-13T01:00:24.071Z,9.42
2023-01-13T01:01:24.251Z,9.45
2023-01-13T01:02:24.146Z,9.42
2023-01-13T01:03:24.079Z,9.35
2023-01-13T01:04:24.057Z,9.44
2023-01-13T01:05:24.057Z,9.34
2023-01-13T01:06:24.114Z,9.44
2023-01-13T01:07:24.061Z,9.42
2023-01-13T01:08:24.050Z,9.32
2023-01-13T01:09:24.043Z,9.34
2023-01-13T01:10:24.033Z,9.34
2023-01-13T01:11:24.071Z,9.40
2023-01-13T01:12:24.052Z,9.38
2023-01-13T01:13:24.018Z,9.41
2023-01-13T01:14:24.004Z,9.42
2023-01-13T01:15:24.004Z,9.38
2023-01-13T01:16:24.099Z,9.42
2023-01-13T01:17:23.991Z,9.40
2023-01-13T01:18:23.982Z,9.37
2023-01-13T01:19:24.022Z,9.42
2023-01-13T01:20:23.977Z,9.37
2023-01-13T01:21:23.980Z,9.37
2023-01-13T01:22:24.007Z,9.48
2023-01-13T01:23:23.967Z,9.52
2023-01-13T01:24:23.961Z,9.38
2023-01-13T01:25:23.948Z,9.52
2023-01-13T01:26:23.968Z,9.44
2023-01-13T01:27:23.968Z,9.50
2023-01-13T01:28:23.917Z,9.55
2023-01-13T01:29:23.971Z,9.53
2023-01-13T01:30:23.927Z,9.40
2023-01-13T01:31:23.933Z,9.42
2023-01-13T01:32:24.002Z,9.55
2023-01-13T01:33:23.900Z,9.49
2023-01-13T01:34:23.956Z,9.49
2023-01-13T01:35:23.884Z,9.48
2023-01-13T01:36:23.891Z,9.45
2023-01-13T01:37:23.877Z,9.55
2023-01-13T01:38:23.871Z,9.58
2023-01-13T01:39:23.921Z,9.60
2023-01-13T01:40:23.876Z,9.62
2023-01-13T01:41:23.889Z,9.65
2023-01-13T01:42:23.848Z,9.63
2023-01-13T01:43:23.884Z,9.70
2023-01-13T01:44:23.858Z,9.71
2023-01-13T01:45:23.884Z,9.67
2023-01-13T01:46:23.886Z,9.63
2023-01-13T01:47:23.832Z,9.65
2023-01-13T01:48:23.812Z,9.53
2023-01-13T01:49:23.854Z,9.62
2023-01-13T01:50:23.781Z,9.65
2023-01-13T01:51:23.794Z,9.67
2023-01-13T01:52:23.792Z,9.59
2023-01-13T01:53:23.815Z,9.68
2023-01-13T01:54:23.819Z,9.71
2023-01-13T01:55:23.758Z,9.65
2023-01-13T01:56:23.786Z,9.67
2023-01-13T01:57:23.745Z,9.71
2023-01-13T01:58:23.743Z,9.63
2023-01-13T01:59:23.757Z,9.74
2023-01-13T02:00:23.761Z,9.75
2023-01-13T02:01:23.879Z,9.62
2023-01-13T02:02:23.744Z,9.65
2023-01-13T02:03:23.731Z,9.67
2023-01-13T02:04:23.701Z,9.65
2023-01-13T02:05:23.702Z,9.73
2023-01-13T02:06:23.740Z,9.74
2023-01-13T02:07:23.679Z,9.70
2023-01-13T02:08:23.687Z,9.70
2023-01-13T02:09:23.671Z,9.78
2023-01-13T02:10:23.664Z,9.67
2023-01-13T02:11:24.704Z,9.68
2023-01-13T02:12:23.657Z,9.65
2023-01-13T02:13:24.587Z,9.80
2023-01-13T02:14:23.641Z,9.81
2023-01-13T02:15:23.669Z,9.71
2023-01-13T02:16:23.751Z,9.71
2023-01-13T02:17:23.664Z,9.71
2023-01-13T02:18:23.620Z,9.73
2023-01-13T02:19:23.608Z,9.56
2023-01-13T02:20:23.587Z,9.63
2023-01-13T02:21:23.575Z,9.74
2023-01-13T02:22:23.620Z,9.71
2023-01-13T02:23:23.605Z,9.67
2023-01-13T02:24:23.563Z,9.60
2023-01-13T02:25:23.591Z,9.67
2023-01-13T02:26:23.556Z,9.67
2023-01-13T02:27:23.560Z,9.59
2023-01-13T02:28:23.590Z,9.67
2023-01-13T02:29:23.563Z,9.59
2023-01-13T02:30:23.548Z,9.58
2023-01-13T02:31:23.555Z,9.58
2023-01-13T02:32:23.579Z,9.62
2023-01-13T02:33:23.504Z,9.63
2023-01-13T02:34:23.525Z,9.52
2023-01-13T02:35:23.498Z,9.65
2023-01-13T02:36:23.528Z,9.68
2023-01-13T02:37:23.569Z,9.56
2023-01-13T02:38:23.483Z,9.68
2023-01-13T02:39:23.495Z,9.60
2023-01-13T02:40:23.469Z,9.67
2023-01-13T02:41:23.518Z,9.63
2023-01-13T02:42:23.461Z,9.67
2023-01-13T02:43:23.462Z,9.68
2023-01-13T02:44:23.508Z,9.68
2023-01-13T02:45:23.583Z,9.62
2023-01-13T02:46:23.431Z,9.71
2023-01-13T02:47:23.420Z,9.65
2023-01-13T02:48:23.403Z,9.60
2023-01-13T02:49:24.469Z,9.68
2023-01-13T02:50:23.454Z,9.70
2023-01-13T02:51:23.400Z,9.77
2023-01-13T02:52:23.420Z,9.70
2023-01-13T02:53:23.420Z,9.70
2023-01-13T02:54:23.422Z,9.53
2023-01-13T02:55:23.377Z,9.71
2023-01-13T02:56:23.462Z,9.59
2023-01-13T02:57:23.360Z,9.71
2023-01-13T02:58:23.379Z,9.67
2023-01-13T02:59:23.350Z,9.75
2023-01-13T03:00:23.412Z,9.65
2023-01-13T03:01:23.557Z,9.63
2023-01-13T03:02:23.484Z,9.58
2023-01-13T03:03:23.368Z,9.75
2023-01-13T03:04:23.334Z,9.71
2023-01-13T03:05:24.378Z,9.58
2023-01-13T03:06:23.341Z,9.68
2023-01-13T03:07:23.360Z,9.71
2023-01-13T03:08:23.343Z,9.67
2023-01-13T03:09:23.316Z,9.56
2023-01-13T03:10:23.318Z,9.67
2023-01-13T03:11:23.337Z,9.62
2023-01-13T03:12:23.424Z,9.56
2023-01-13T03:13:23.312Z,9.52
2023-01-13T03:14:23.278Z,9.56
2023-01-13T03:15:23.280Z,9.50
2023-01-13T03:16:23.377Z,9.52
2023-01-13T03:17:23.272Z,9.52
2023-01-13T03:18:23.263Z,9.48
2023-01-13T03:19:23.255Z,9.48
2023-01-13T03:20:23.243Z,9.35
2023-01-13T03:21:23.291Z,9.45
2023-01-13T03:22:23.247Z,9.42
2023-01-13T03:23:23.304Z,9.45
2023-01-13T03:24:23.237Z,9.41
2023-01-13T03:25:23.207Z,9.41
2023-01-13T03:26:23.215Z,9.52
2023-01-13T03:27:23.213Z,9.42
2023-01-13T03:28:23.210Z,9.38
2023-01-13T03:29:23.238Z,9.55
2023-01-13T03:30:23.257Z,9.55
2023-01-13T03:31:23.319Z,9.44
2023-01-13T03:32:23.254Z,9.48
2023-01-13T03:33:23.230Z,9.42
2023-01-13T03:34:23.170Z,9.48
2023-01-13T03:35:23.154Z,9.41
2023-01-13T03:36:23.145Z,9.49
2023-01-13T03:37:23.194Z,9.35
2023-01-13T03:38:23.140Z,9.38
2023-01-13T03:39:23.123Z,9.38
2023-01-13T03:40:23.126Z,9.06
2023-01-13T03:41:23.111Z,9.10
2023-01-13T03:42:23.160Z,9.08
2023-01-13T03:43:23.102Z,9.03
2023-01-13T03:44:23.113Z,9.13
2023-01-13T03:45:23.126Z,9.17
2023-01-13T03:46:23.167Z,9.20
2023-01-13T03:47:23.099Z,9.15
2023-01-13T03:48:23.135Z,9.13
2023-01-13T03:49:23.080Z,9.23
2023-01-13T03:50:23.095Z,9.16
2023-01-13T03:51:23.091Z,9.01
2023-01-13T03:52:23.167Z,9.19
2023-01-13T03:53:23.052Z,9.15
2023-01-13T03:54:23.092Z,9.01
2023-01-13T03:55:23.032Z,9.00
2023-01-13T03:56:23.038Z,8.89
2023-01-13T03:57:23.014Z,8.97
2023-01-13T03:58:23.033Z,8.82
2023-01-13T03:59:23.006Z,8.91
2023-01-13T04:00:23.047Z,8.85
2023-01-13T04:01:23.183Z,8.94
2023-01-13T04:02:23.044Z,8.82
2023-01-13T04:03:23.018Z,8.79
2023-01-13T04:04:22.996Z,8.83
2023-01-13T04:05:23.035Z,8.75
2023-01-13T04:06:22.985Z,8.76
2023-01-13T04:07:22.970Z,8.73
2023-01-13T04:08:22.963Z,8.82
2023-01-13T04:09:22.969Z,8.78
2023-01-13T04:10:22.977Z,8.82
2023-01-13T04:11:22.940Z,8.75
2023-01-13T04:12:22.929Z,8.71
2023-01-13T04:13:22.911Z,8.70
2023-01-13T04:14:22.927Z,8.58
2023-01-13T04:15:22.925Z,8.63
2023-01-13T04:16:22.997Z,8.60
2023-01-13T04:17:22.926Z,8.58
2023-01-13T04:18:22.906Z,8.55
2023-01-13T04:19:22.902Z,8.60
2023-01-13T04:20:22.874Z,8.61
2023-01-13T04:21:22.924Z,8.57
2023-01-13T04:22:22.880Z,8.60
2023-01-13T04:23:22.900Z,8.54
2023-01-13T04:24:22.876Z,8.55
2023-01-13T04:25:22.870Z,8.43
2023-01-13T04:26:22.855Z,8.37
2023-01-13T04:27:22.904Z,8.36
2023-01-13T04:28:22.842Z,8.28
2023-01-13T04:29:22.838Z,8.24
2023-01-13T04:30:22.838Z,8.24
2023-01-13T04:31:22.927Z,8.31
2023-01-13T04:32:22.851Z,8.24
2023-01-13T04:33:22.845Z,8.18
2023-01-13T04:34:22.819Z,8.24
2023-01-13T04:35:22.808Z,8.24
2023-01-13T04:36:22.845Z,8.17
2023-01-13T04:37:22.823Z,8.18
2023-01-13T04:38:22.807Z,8.17
2023-01-13T04:39:22.792Z,8.20
2023-01-13T04:40:22.803Z,8.24
2023-01-13T04:41:22.828Z,8.07
2023-01-13T04:42:22.804Z,8.18
2023-01-13T04:43:22.769Z,8.10
2023-01-13T04:44:22.772Z,8.12
2023-01-13T04:45:22.808Z,8.10
2023-01-13T04:46:22.824Z,8.06
2023-01-13T04:47:22.776Z,8.06
2023-01-13T04:48:22.737Z,8.09
2023-01-13T04:49:22.799Z,8.09
2023-01-13T04:50:22.821Z,8.07
2023-01-13T04:51:22.747Z,8.07
2023-01-13T04:52:22.754Z,8.09
2023-01-13T04:53:22.812Z,7.96
2023-01-13T04:54:22.764Z,7.99
2023-01-13T04:55:22.716Z,8.00
2023-01-13T04:56:22.708Z,7.95
2023-01-13T04:57:22.727Z,7.88
2023-01-13T04:58:22.833Z,7.88
2023-01-13T04:59:22.694Z,7.89
2023-01-13T05:00:22.737Z,7.88
2023-01-13T05:01:22.846Z,7.89
2023-01-13T05:02:22.785Z,7.85
2023-01-13T05:03:22.675Z,7.84
2023-01-13T05:04:22.718Z,7.79
2023-01-13T05:05:22.712Z,7.92
2023-01-13T05:06:22.707Z,7.85
2023-01-13T05:07:22.752Z,7.81
2023-01-13T05:08:22.650Z,7.81
2023-01-13T05:09:22.666Z,7.73
2023-01-13T05:10:24.050Z,7.76
2023-01-13T05:11:23.663Z,7.79
2023-01-13T05:12:22.671Z,7.76
2023-01-13T05:13:22.688Z,7.76
2023-01-13T05:14:22.637Z,7.76
2023-01-13T05:15:22.620Z,7.76
2023-01-13T05:16:22.777Z,7.77
2023-01-13T05:17:22.629Z,7.71
2023-01-13T05:18:22.620Z,7.85
2023-01-13T05:19:22.607Z,7.77
2023-01-13T05:20:22.618Z,7.79
2023-01-13T05:21:22.654Z,7.81
2023-01-13T05:22:22.588Z,7.85
2023-01-13T05:23:22.618Z,7.77
2023-01-13T05:24:22.590Z,7.74
2023-01-13T05:25:22.586Z,7.81
2023-01-13T05:26:22.592Z,7.85
2023-01-13T05:27:22.606Z,7.79
2023-01-13T05:28:22.589Z,7.77
2023-01-13T05:29:22.576Z,7.84
2023-01-13T05:30:22.574Z,7.88
2023-01-13T05:31:22.586Z,7.94
2023-01-13T05:32:22.620Z,7.89
2023-01-13T05:33:22.587Z,7.91
2023-01-13T05:34:22.535Z,7.84
2023-01-13T05:35:22.536Z,7.88
2023-01-13T05:36:22.514Z,7.77
2023-01-13T05:37:22.516Z,7.74
2023-01-13T05:38:22.568Z,7.76
2023-01-13T05:39:22.553Z,7.71
2023-01-13T05:40:22.555Z,7.74
2023-01-13T05:41:22.506Z,7.77
2023-01-13T05:42:22.500Z,7.84
2023-01-13T05:43:22.536Z,7.86
2023-01-13T05:44:22.546Z,7.89
2023-01-13T05:45:22.478Z,7.86
2023-01-13T05:46:22.497Z,7.82
2023-01-13T05:47:23.519Z,8.00
2023-01-13T05:48:22.512Z,7.92
2023-01-13T05:49:22.513Z,7.88
2023-01-13T05:50:22.490Z,7.94
2023-01-13T05:51:22.495Z,7.95
2023-01-13T05:52:22.470Z,8.00
2023-01-13T05:53:22.425Z,7.96
2023-01-13T05:54:22.535Z,8.04
2023-01-13T05:55:22.473Z,8.03
2023-01-13T05:56:22.431Z,8.06
2023-01-13T05:57:22.426Z,7.94
2023-01-13T05:58:22.442Z,7.99
2023-01-13T05:59:22.459Z,7.96
2023-01-13T06:00:22.435Z,7.91
2023-01-13T06:01:22.496Z,7.88
2023-01-13T06:02:22.416Z,7.95
2023-01-13T06:03:22.420Z,7.94
2023-01-13T06:04:22.443Z,7.99
2023-01-13T06:05:22.366Z,7.77
2023-01-13T06:06:22.447Z,7.84
2023-01-13T06:07:22.381Z,7.79
2023-01-13T06:08:22.388Z,7.88
2023-01-13T06:09:22.365Z,7.92
2023-01-13T06:10:22.346Z,7.94
2023-01-13T06:11:22.418Z,7.89
2023-01-13T06:12:22.376Z,7.85
2023-01-13T06:13:22.353Z,7.81
2023-01-13T06:14:22.376Z,7.88
2023-01-13T06:15:22.391Z,7.89
2023-01-13T06:16:22.374Z,7.88
2023-01-13T06:17:22.329Z,7.89
2023-01-13T06:18:22.336Z,7.82
2023-01-13T06:19:22.347Z,7.81
2023-01-13T06:20:22.317Z,7.91
2023-01-13T06:21:22.315Z,7.74
2023-01-13T06:22:22.316Z,7.85
2023-01-13T06:23:22.342Z,7.82
2023-01-13T06:24:22.363Z,7.85
2023-01-13T06:25:22.294Z,7.82
2023-01-13T06:26:22.294Z,7.88
2023-01-13T06:27:22.297Z,7.82
2023-01-13T06:28:22.275Z,7.76
2023-01-13T06:29:22.332Z,7.76
2023-01-13T06:30:22.271Z,7.86
2023-01-13T06:31:22.357Z,7.77
2023-01-13T06:32:22.333Z,7.86
2023-01-13T06:33:22.247Z,7.81
2023-01-13T06:34:22.286Z,7.94
2023-01-13T06:35:22.240Z,7.82
2023-01-13T06:36:22.290Z,7.88
2023-01-13T06:37:22.324Z,7.88
2023-01-13T06:38:22.260Z,7.81
2023-01-13T06:39:22.298Z,7.76
2023-01-13T06:40:22.224Z,7.70
2023-01-13T06:41:22.211Z,7.67
2023-01-13T06:42:22.209Z,7.73
2023-01-13T06:43:22.247Z,7.69
2023-01-13T06:44:22.226Z,7.57
2023-01-13T06:45:22.268Z,7.66
2023-01-13T06:46:22.257Z,7.57
2023-01-13T06:47:22.263Z,7.57
2023-01-13T06:48:22.219Z,7.45
2023-01-13T06:49:22.233Z,7.54
2023-01-13T06:50:22.156Z,7.55
2023-01-13T06:51:22.260Z,7.50
2023-01-13T06:52:22.204Z,7.55
2023-01-13T06:53:22.164Z,7.42
2023-01-13T06:54:22.195Z,7.42
2023-01-13T06:55:22.214Z,7.39
2023-01-13T06:56:22.168Z,7.51
2023-01-13T06:57:22.161Z,7.26
2023-01-13T06:58:22.148Z,7.41
2023-01-13T06:59:22.189Z,7.39
2023-01-13T07:00:22.126Z,7.32
2023-01-13T07:01:22.221Z,7.30
2023-01-13T07:02:22.297Z,7.15
2023-01-13T07:03:22.115Z,7.23
2023-01-13T07:04:22.167Z,7.09
2023-01-13T07:05:22.131Z,7.14
2023-01-13T07:06:22.123Z,7.11
2023-01-13T07:07:22.136Z,7.08
2023-01-13T07:08:22.118Z,7.11
2023-01-13T07:09:22.198Z,7.07
2023-01-13T07:10:22.172Z,7.12
2023-01-13T07:11:22.068Z,7.12
2023-01-13T07:12:22.087Z,7.07
2023-01-13T07:13:22.079Z,7.05
2023-01-13T07:14:22.069Z,7.09
2023-01-13T07:15:22.043Z,7.09
2023-01-13T07:16:22.162Z,7.04
2023-01-13T07:17:22.033Z,7.07
2023-01-13T07:18:22.050Z,7.11
2023-01-13T07:19:22.280Z,7.00
2023-01-13T07:20:23.012Z,7.00
2023-01-13T07:21:22.164Z,7.07
2023-01-13T07:22:22.025Z,7.15
2023-01-13T07:23:22.043Z,7.08
2023-01-13T07:24:22.004Z,7.11
2023-01-13T07:25:22.006Z,7.05
2023-01-13T07:26:22.024Z,7.19
2023-01-13T07:27:22.032Z,7.08
2023-01-13T07:28:21.987Z,7.16
2023-01-13T07:29:21.994Z,7.12
2023-01-13T07:30:21.980Z,7.18
2023-01-13T07:31:22.030Z,7.11
2023-01-13T07:32:22.010Z,7.15
2023-01-13T07:33:22.023Z,7.12
2023-01-13T07:34:22.083Z,7.16
2023-01-13T07:35:22.054Z,7.16
2023-01-13T07:36:22.070Z,7.16
2023-01-13T07:37:21.964Z,7.18
2023-01-13T07:38:21.951Z,7.14
2023-01-13T07:39:21.986Z,7.08
2023-01-13T07:40:21.927Z,7.18
2023-01-13T07:41:22.009Z,7.18
2023-01-13T07:42:21.919Z,7.11
2023-01-13T07:43:21.963Z,7.16
2023-01-13T07:44:21.956Z,7.19
2023-01-13T07:45:21.995Z,7.23
2023-01-13T07:46:21.897Z,7.23
2023-01-13T07:47:22.049Z,7.24
2023-01-13T07:48:21.884Z,7.24
2023-01-13T07:49:21.885Z,7.26
2023-01-13T07:50:21.942Z,7.23
2023-01-13T07:51:21.874Z,7.21
2023-01-13T07:52:21.898Z,7.24
2023-01-13T07:53:21.888Z,7.12
2023-01-13T07:54:39.014Z,7.23
2023-01-13T07:55:22.880Z,7.21
2023-01-13T07:56:21.840Z,7.12
2023-01-13T07:57:22.852Z,7.18
2023-01-13T07:58:21.836Z,7.23
2023-01-13T07:59:21.873Z,7.27
2023-01-13T08:00:21.863Z,7.23
2023-01-13T08:01:21.978Z,7.29
2023-01-13T08:02:22.123Z,7.26
2023-01-13T08:03:22.185Z,7.30
2023-01-13T08:04:21.875Z,7.32
2023-01-13T08:05:21.961Z,7.23
2023-01-13T08:06:21.940Z,7.23
2023-01-13T08:07:21.860Z,7.29
2023-01-13T08:08:21.915Z,7.27
2023-01-13T08:09:21.930Z,7.34
2023-01-13T08:10:21.833Z,7.41
2023-01-13T08:11:23.571Z,7.50
2023-01-13T08:12:22.918Z,7.39
2023-01-13T08:13:21.836Z,7.39
2023-01-13T08:14:21.801Z,7.42
2023-01-13T08:15:21.803Z,7.37
2023-01-13T08:16:21.932Z,7.47
2023-01-13T08:17:21.872Z,7.39
2023-01-13T08:18:21.786Z,7.55
2023-01-13T08:19:21.737Z,7.62
2023-01-13T08:20:21.747Z,7.50
2023-01-13T08:21:21.815Z,7.60
2023-01-13T08:22:21.717Z,7.51
2023-01-13T08:23:21.774Z,7.54
2023-01-13T08:24:21.728Z,7.50
2023-01-13T08:25:23.419Z,7.45
2023-01-13T08:26:21.737Z,7.57
2023-01-13T08:27:21.711Z,7.48
2023-01-13T08:28:21.760Z,7.58
2023-01-13T08:29:21.740Z,7.63
2023-01-13T08:30:21.699Z,7.63
2023-01-13T08:31:21.755Z,7.70
2023-01-13T08:32:21.680Z,7.70
2023-01-13T08:33:21.785Z,7.51
2023-01-13T08:34:21.663Z,7.71
2023-01-13T08:35:21.687Z,7.73
2023-01-13T08:36:21.705Z,7.70
2023-01-13T08:37:21.660Z,7.71
2023-01-13T08:38:21.783Z,7.73
2023-01-13T08:39:21.684Z,7.76
2023-01-13T08:40:21.660Z,7.73
2023-01-13T08:41:21.664Z,7.69
2023-01-13T08:42:21.667Z,7.74
2023-01-13T08:43:21.682Z,7.76
2023-01-13T08:44:21.638Z,7.79
2023-01-13T08:45:21.624Z,7.66
2023-01-13T08:46:21.705Z,7.77
2023-01-13T08:47:21.650Z,7.81
2023-01-13T08:48:21.667Z,7.77
2023-01-13T08:49:21.629Z,7.84
2023-01-13T08:50:21.618Z,7.96
2023-01-13T08:51:21.594Z,8.07
2023-01-13T08:52:21.607Z,8.06
2023-01-13T08:53:21.599Z,8.24
2023-01-13T08:54:21.619Z,8.21
2023-01-13T08:55:21.577Z,8.29
2023-01-13T08:56:21.631Z,8.42
2023-01-13T08:57:21.633Z,8.60
2023-01-13T08:58:21.641Z,8.63
2023-01-13T08:59:21.555Z,8.71
2023-01-13T09:00:21.566Z,8.65
2023-01-13T09:01:21.654Z,8.75
2023-01-13T09:02:21.627Z,8.79
2023-01-13T09:03:21.554Z,8.91
2023-01-13T09:04:21.639Z,8.85
2023-01-13T09:05:21.632Z,8.79
2023-01-13T09:06:21.615Z,8.73
2023-01-13T09:07:21.504Z,8.67
2023-01-13T09:08:21.622Z,8.49
2023-01-13T09:09:21.493Z,8.40
2023-01-13T09:10:21.531Z,8.37
2023-01-13T09:11:21.579Z,8.42
2023-01-13T09:12:21.490Z,8.50
2023-01-13T09:13:22.559Z,8.68
2023-01-13T09:14:21.533Z,8.63
2023-01-13T09:15:21.500Z,8.75
2023-01-13T09:16:21.547Z,8.71
2023-01-13T09:17:21.464Z,8.65
2023-01-13T09:18:21.471Z,8.83
2023-01-13T09:19:21.436Z,8.88
2023-01-13T09:20:21.446Z,8.82
2023-01-13T09:21:21.490Z,9.00
2023-01-13T09:22:21.445Z,8.98
2023-01-13T09:23:21.437Z,9.00
2023-01-13T09:24:21.431Z,8.89
2023-01-13T09:25:21.403Z,9.01
2023-01-13T09:26:21.468Z,9.15
2023-01-13T09:27:21.403Z,8.98
2023-01-13T09:28:21.653Z,9.15
2023-01-13T09:29:21.397Z,9.12
2023-01-13T09:30:21.400Z,9.08
2023-01-13T09:31:21.435Z,8.97
2023-01-13T09:32:21.357Z,8.97
2023-01-13T09:33:21.400Z,8.83
2023-01-13T09:34:21.411Z,8.89
2023-01-13T09:35:21.384Z,8.79
2023-01-13T09:36:22.358Z,8.68
2023-01-13T09:37:21.342Z,8.55
2023-01-13T09:38:21.346Z,8.47
2023-01-13T09:39:21.491Z,8.49
2023-01-13T09:40:21.349Z,8.47
2023-01-13T09:41:21.362Z,8.39
2023-01-13T09:42:21.309Z,8.29
2023-01-13T09:43:21.314Z,8.25
2023-01-13T09:44:21.312Z,8.20
2023-01-13T09:45:21.368Z,8.22
2023-01-13T09:46:21.348Z,8.22
2023-01-13T09:47:21.301Z,8.14
2023-01-13T09:48:21.298Z,8.22
2023-01-13T09:49:21.296Z,8.28
2023-01-13T09:50:21.441Z,8.18
2023-01-13T09:51:21.349Z,8.21
2023-01-13T09:52:21.338Z,8.20
2023-01-13T09:53:21.280Z,8.20
2023-01-13T09:54:21.255Z,8.21
2023-01-13T09:55:21.297Z,8.27
2023-01-13T09:56:21.273Z,8.36
2023-01-13T09:57:21.242Z,8.43
2023-01-13T09:58:21.269Z,8.50
2023-01-13T09:59:21.221Z,8.47
2023-01-13T10:00:21.255Z,8.52
2023-01-13T10:01:21.285Z,8.57
2023-01-13T10:02:21.235Z,8.67
2023-01-13T10:03:21.241Z,8.64
2023-01-13T10:04:21.245Z,8.76
2023-01-13T10:05:21.222Z,8.79
2023-01-13T10:06:21.167Z,8.89
2023-01-13T10:07:25.047Z,9.06
2023-01-13T10:08:22.266Z,9.10
2023-01-13T10:09:21.160Z,9.22
2023-01-13T10:10:21.226Z,9.19
2023-01-13T10:11:21.142Z,9.27
2023-01-13T10:12:21.169Z,9.42
2023-01-13T10:13:21.128Z,9.22
2023-01-13T10:14:21.134Z,9.22
2023-01-13T10:15:21.188Z,9.26
2023-01-13T10:16:21.160Z,9.12
2023-01-13T10:17:21.133Z,9.06
2023-01-13T10:18:21.113Z,8.94
2023-01-13T10:19:21.115Z,8.86
2023-01-13T10:20:21.120Z,8.89
2023-01-13T10:21:21.142Z,8.91
2023-01-13T10:22:21.165Z,8.91
2023-01-13T10:23:21.104Z,8.94
2023-01-13T10:24:21.092Z,8.94
2023-01-13T10:25:21.080Z,8.80
2023-01-13T10:26:21.165Z,8.85
2023-01-13T10:27:21.107Z,8.76
2023-01-13T10:28:21.087Z,8.80
2023-01-13T10:29:21.134Z,8.75
2023-01-13T10:30:21.141Z,8.73
2023-01-13T10:31:21.111Z,8.78
2023-01-13T10:32:21.032Z,8.73
2023-01-13T10:33:21.009Z,8.82
2023-01-13T10:34:21.023Z,8.65
2023-01-13T10:35:21.049Z,8.73
2023-01-13T10:36:20.983Z,8.73
2023-01-13T10:37:21.008Z,8.65
2023-01-13T10:38:20.996Z,8.64
2023-01-13T10:39:21.002Z,8.78
2023-01-13T10:40:21.056Z,8.67
2023-01-13T10:41:21.073Z,8.55
2023-01-13T10:42:20.969Z,8.54
2023-01-13T10:43:20.978Z,8.55
2023-01-13T10:44:21.141Z,8.60
2023-01-13T10:45:20.961Z,8.55
2023-01-13T10:46:20.990Z,8.61
2023-01-13T10:47:20.965Z,8.70
2023-01-13T10:48:20.972Z,8.61
2023-01-13T10:49:20.997Z,8.65
2023-01-13T10:50:20.930Z,8.61
2023-01-13T10:51:20.977Z,8.71
2023-01-13T10:52:20.940Z,8.68
2023-01-13T10:53:20.925Z,8.68
2023-01-13T10:54:20.903Z,8.80
2023-01-13T10:55:20.899Z,8.73
2023-01-13T10:56:20.941Z,8.75
2023-01-13T10:57:20.947Z,8.67
2023-01-13T10:58:20.897Z,8.68
2023-01-13T10:59:20.911Z,8.82
2023-01-13T11:00:20.871Z,8.78
2023-01-13T11:01:21.093Z,8.82
2023-01-13T11:02:25.982Z,8.76
2023-01-13T11:03:22.864Z,8.78
2023-01-13T11:04:20.880Z,8.73
2023-01-13T11:05:20.855Z,8.82
2023-01-13T11:06:20.832Z,8.73
2023-01-13T11:07:20.925Z,8.70
2023-01-13T11:08:20.898Z,8.78
2023-01-13T11:09:20.878Z,8.83
2023-01-13T11:10:20.835Z,8.83
2023-01-13T11:11:20.862Z,8.76
2023-01-13T11:12:20.870Z,8.76
2023-01-13T11:13:20.836Z,8.63
2023-01-13T11:14:20.799Z,8.73
2023-01-13T11:15:20.884Z,8.75
2023-01-13T11:16:21.001Z,8.82
2023-01-13T11:17:20.838Z,8.68
2023-01-13T11:18:20.895Z,8.68
2023-01-13T11:19:20.796Z,8.78
2023-01-13T11:20:20.772Z,8.65
2023-01-13T11:21:20.770Z,8.76
2023-01-13T11:22:20.760Z,8.85
2023-01-13T11:23:20.801Z,8.80
2023-01-13T11:24:20.801Z,8.83
2023-01-13T11:25:20.750Z,8.85
2023-01-13T11:26:20.745Z,8.94
2023-01-13T11:27:20.742Z,8.88
2023-01-13T11:28:20.787Z,8.89
2023-01-13T11:29:20.737Z,8.86
2023-01-13T11:30:21.720Z,8.85
2023-01-13T11:31:20.764Z,8.80
2023-01-13T11:32:20.716Z,8.80
2023-01-13T11:33:20.792Z,8.85
2023-01-13T11:34:20.707Z,8.89
2023-01-13T11:35:20.754Z,8.93
2023-01-13T11:36:20.907Z,8.91
2023-01-13T11:37:21.684Z,8.86
2023-01-13T11:38:20.705Z,8.96
2023-01-13T11:39:20.723Z,8.91
2023-01-13T11:40:20.790Z,8.86
2023-01-13T11:41:20.743Z,8.86
2023-01-13T11:42:20.667Z,8.86
2023-01-13T11:43:20.673Z,8.85
2023-01-13T11:44:20.671Z,8.98
2023-01-13T11:45:20.722Z,8.93
2023-01-13T11:46:20.691Z,8.98
2023-01-13T11:47:20.673Z,8.89
2023-01-13T11:48:20.665Z,8.91
2023-01-13T11:49:22.350Z,8.98
2023-01-13T11:50:21.644Z,8.98
2023-01-13T11:51:20.660Z,9.00
2023-01-13T11:52:20.660Z,9.00
2023-01-13T11:53:20.622Z,8.89
2023-01-13T11:54:20.615Z,8.98
2023-01-13T11:55:36.454Z,8.96
2023-01-13T11:56:22.596Z,8.93
2023-01-13T11:57:20.610Z,8.96
2023-01-13T11:58:20.632Z,9.00
2023-01-13T11:59:20.568Z,8.98
2023-01-13T12:00:20.595Z,8.97
2023-01-13T12:01:23.188Z,8.98
2023-01-13T12:02:21.648Z,8.93
2023-01-13T12:03:20.676Z,9.01
2023-01-13T12:04:20.554Z,9.01
2023-01-13T12:05:20.584Z,9.03
2023-01-13T12:06:20.598Z,8.93
2023-01-13T12:07:23.052Z,9.01
2023-01-13T12:08:21.588Z,9.00
2023-01-13T12:09:20.555Z,9.00
2023-01-13T12:10:20.524Z,9.01
2023-01-13T12:11:20.624Z,9.03
2023-01-13T12:12:20.541Z,9.06
2023-01-13T12:13:20.560Z,8.98
2023-01-13T12:14:20.507Z,8.93
2023-01-13T12:15:20.551Z,8.93
2023-01-13T12:16:20.542Z,8.98
2023-01-13T12:17:20.515Z,8.97
2023-01-13T12:18:20.494Z,8.93
2023-01-13T12:19:20.502Z,8.98
2023-01-13T12:20:20.499Z,9.03
2023-01-13T12:21:20.499Z,8.98
2023-01-13T12:22:21.548Z,9.06
2023-01-13T12:23:20.523Z,8.94
2023-01-13T12:24:20.455Z,9.00
2023-01-13T12:25:20.502Z,9.08
2023-01-13T12:26:20.462Z,9.24
2023-01-13T12:27:20.563Z,9.20
2023-01-13T12:28:20.510Z,9.17
2023-01-13T12:29:20.551Z,9.31
2023-01-13T12:30:20.493Z,9.31
2023-01-13T12:31:20.491Z,9.20
2023-01-13T12:32:20.433Z,9.27
2023-01-13T12:33:20.457Z,9.20
2023-01-13T12:34:20.446Z,9.24
2023-01-13T12:35:20.429Z,9.17
2023-01-13T12:36:20.391Z,9.23
2023-01-13T12:37:20.404Z,9.20
2023-01-13T12:38:21.028Z,9.13
2023-01-13T12:39:20.425Z,9.23
2023-01-13T12:40:20.404Z,9.19
2023-01-13T12:41:20.381Z,9.26
2023-01-13T12:42:20.378Z,9.22
2023-01-13T12:43:20.386Z,9.30
2023-01-13T12:44:20.535Z,9.37
2023-01-13T12:45:20.373Z,9.19
2023-01-13T12:46:20.366Z,9.22
2023-01-13T12:47:20.337Z,9.24
2023-01-13T12:48:20.349Z,9.24
2023-01-13T12:49:20.383Z,9.19
2023-01-13T12:50:20.392Z,9.19
2023-01-13T12:51:20.379Z,9.16
2023-01-13T12:52:20.327Z,9.22
2023-01-13T12:53:20.422Z,9.20
2023-01-13T12:54:20.314Z,9.23
2023-01-13T12:55:20.422Z,9.12
2023-01-13T12:56:20.325Z,9.16
2023-01-13T12:57:20.312Z,9.04
2023-01-13T12:58:20.395Z,9.16
2023-01-13T12:59:20.270Z,9.16
2023-01-13T13:00:20.284Z,9.17
2023-01-13T13:01:20.406Z,9.13
2023-01-13T13:02:20.544Z,9.06
2023-01-13T13:03:20.242Z,9.00
2023-01-13T13:04:20.239Z,9.01
2023-01-13T13:05:20.241Z,9.01
2023-01-13T13:06:20.272Z,9.04
2023-01-13T13:07:20.271Z,9.00
2023-01-13T13:08:20.245Z,8.97
2023-01-13T13:09:20.232Z,9.00
2023-01-13T13:10:20.224Z,9.04
2023-01-13T13:11:20.223Z,9.10
2023-01-13T13:12:20.260Z,9.19
2023-01-13T13:13:20.274Z,9.16
2023-01-13T13:14:20.198Z,9.22
2023-01-13T13:15:20.266Z,9.17
2023-01-13T13:16:20.265Z,9.26
2023-01-13T13:17:20.223Z,9.26
2023-01-13T13:18:20.160Z,9.17